createdAt,value
2024-05-09T00:00:48.875Z,1.00
2024-05-09T00:03:40.816Z,1.00
2024-05-09T00:06:09.302Z,1.00
2024-05-09T00:08:38.975Z,1.00
2024-05-09T00:11:07.049Z,0.00
2024-05-09T00:13:37.597Z,0.00
2024-05-09T00:16:06.274Z,1.00
2024-05-09T00:18:35.557Z,1.00
2024-05-09T00:21:07.527Z,1.00
2024-05-09T00:23:36.885Z,1.00
2024-05-09T00:26:05.173Z,0.00
2024-05-09T00:28:35.530Z,0.00
2024-05-09T00:31:03.664Z,0.50
2024-05-09T00:33:34.024Z,1.00
2024-05-09T00:36:02.071Z,0.00
2024-05-09T00:38:32.504Z,0.33
2024-05-09T00:41:00.663Z,1.00
2024-05-09T00:43:32.500Z,1.00
2024-05-09T00:46:01.772Z,0.00
2024-05-09T00:48:31.169Z,0.50
2024-05-09T00:50:59.269Z,0.00
2024-05-09T00:53:29.584Z,0.00
2024-05-09T00:55:57.511Z,0.00
2024-05-09T00:58:26.194Z,0.50
2024-05-09T01:00:55.366Z,1.00
2024-05-09T01:03:23.581Z,0.00
2024-05-09T01:05:51.814Z,0.00
2024-05-09T01:08:21.601Z,1.00
2024-05-09T01:10:49.878Z,0.67
2024-05-09T01:13:20.071Z,0.00
2024-05-09T01:15:49.905Z,0.00
2024-05-09T01:18:19.176Z,0.00
2024-05-09T01:20:47.310Z,1.00
2024-05-09T01:23:17.526Z,0.00
2024-05-09T01:25:46.413Z,1.00
2024-05-09T01:28:16.425Z,0.00
2024-05-09T01:30:44.826Z,1.00
2024-05-09T01:33:15.262Z,0.00
2024-05-09T01:35:43.536Z,1.00
2024-05-09T01:38:16.714Z,0.67
2024-05-09T01:40:45.245Z,1.00
2024-05-09T01:43:15.071Z,0.00
2024-05-09T01:45:43.066Z,0.00
2024-05-09T01:48:13.619Z,0.00
2024-05-09T01:50:43.135Z,0.25
2024-05-09T01:53:14.470Z,-0.50
2024-05-09T01:55:43.228Z,0.00
2024-05-09T01:58:12.969Z,0.00
2024-05-09T02:00:42.811Z,1.00
2024-05-09T02:03:16.101Z,0.00
2024-05-09T02:05:51.765Z,0.00
2024-05-09T02:08:20.681Z,0.00
2024-05-09T02:10:50.760Z,0.00
2024-05-09T02:13:19.154Z,0.00
2024-05-09T02:15:52.078Z,0.00
2024-05-09T02:18:23.081Z,0.50
2024-05-09T02:20:52.570Z,0.00
2024-05-09T02:23:20.554Z,0.00
2024-05-09T02:25:48.620Z,0.00
2024-05-09T02:28:20.101Z,0.00
2024-05-09T02:30:48.082Z,0.00
2024-05-09T02:33:17.461Z,0.00
2024-05-09T02:35:45.631Z,0.25
2024-05-09T02:38:16.049Z,1.00
2024-05-09T02:40:44.011Z,0.00
2024-05-09T02:43:12.780Z,0.00
2024-05-09T02:45:42.488Z,0.00
2024-05-09T02:48:12.129Z,1.00
2024-05-09T02:50:44.069Z,0.50
2024-05-09T02:53:12.459Z,0.25
2024-05-09T02:55:42.306Z,0.00
2024-05-09T02:58:10.833Z,0.00
2024-05-09T03:00:42.750Z,0.00
2024-05-09T03:03:14.111Z,1.00
2024-05-09T03:05:46.474Z,0.00
2024-05-09T03:08:15.058Z,0.00
2024-05-09T03:10:44.522Z,0.00
2024-05-09T03:13:14.926Z,0.00
2024-05-09T03:15:45.520Z,0.00
2024-05-09T03:18:14.002Z,0.00
2024-05-09T03:20:46.596Z,0.00
2024-05-09T03:23:14.524Z,0.75
2024-05-09T03:25:43.836Z,0.50
2024-05-09T03:28:12.039Z,0.00
2024-05-09T03:30:42.575Z,0.00
2024-05-09T03:33:16.411Z,1.00
2024-05-09T03:35:45.443Z,0.00
2024-05-09T03:38:14.768Z,0.00
2024-05-09T03:40:46.320Z,0.00
2024-05-09T03:43:15.712Z,0.00
2024-05-09T03:45:43.679Z,0.00
2024-05-09T03:48:11.851Z,0.00
2024-05-09T03:50:41.631Z,0.00
2024-05-09T03:53:10.749Z,0.00
2024-05-09T03:55:40.206Z,0.00
2024-05-09T03:58:08.476Z,0.00
2024-05-09T04:00:40.136Z,0.00
2024-05-09T04:03:11.144Z,0.00
2024-05-09T04:05:43.714Z,0.00
2024-05-09T04:08:14.706Z,0.00
2024-05-09T04:10:45.243Z,0.00
2024-05-09T04:22:37.927Z,0.00
2024-05-09T04:25:06.170Z,0.00
2024-05-09T04:27:34.050Z,0.00
2024-05-09T04:30:03.737Z,0.00
2024-05-09T04:32:33.349Z,0.00
2024-05-09T04:35:02.647Z,0.00
2024-05-09T04:37:30.546Z,0.00
2024-05-09T04:39:58.682Z,0.00
2024-05-09T04:42:27.793Z,0.00
2024-05-09T04:44:58.770Z,0.00
2024-05-09T04:47:28.330Z,0.00
2024-05-09T04:49:56.326Z,0.00
2024-05-09T04:52:26.462Z,1.00
2024-05-09T04:54:54.797Z,1.00
2024-05-09T04:57:25.360Z,0.00
2024-05-09T04:59:53.359Z,0.00
2024-05-09T05:02:21.687Z,0.00
2024-05-09T05:04:51.059Z,0.00
2024-05-09T05:07:19.151Z,0.25
2024-05-09T05:09:49.381Z,1.00
2024-05-09T05:12:35.740Z,1.00
2024-05-09T05:15:05.205Z,1.00
2024-05-09T05:17:34.125Z,1.00
2024-05-09T05:20:04.849Z,0.00
2024-05-09T05:22:33.844Z,1.00
2024-05-09T05:25:03.142Z,0.00
2024-05-09T05:27:31.107Z,1.00
2024-05-09T05:29:59.181Z,1.00
2024-05-09T05:32:28.463Z,0.50
2024-05-09T05:34:56.791Z,0.00
2024-05-09T05:37:27.055Z,1.00
2024-05-09T05:39:55.062Z,1.00
2024-05-09T05:42:22.981Z,1.00
2024-05-09T05:44:52.151Z,0.00
2024-05-09T05:47:20.279Z,1.00
2024-05-09T05:49:48.304Z,1.00
2024-05-09T05:52:17.496Z,1.00
2024-05-09T05:54:48.341Z,0.00
2024-05-09T05:57:17.934Z,1.00
2024-05-09T05:59:45.979Z,1.00
2024-05-09T06:02:16.234Z,1.00
2024-05-09T06:04:44.491Z,1.00
2024-05-09T06:07:14.668Z,1.00
2024-05-09T06:09:42.641Z,1.00
2024-05-09T06:12:10.733Z,1.00
2024-05-09T06:14:40.109Z,1.00
2024-05-09T06:17:08.164Z,1.00
2024-05-09T06:19:36.286Z,1.00
2024-05-09T06:22:05.697Z,1.00
2024-05-09T06:24:33.638Z,1.00
2024-05-09T06:27:03.554Z,1.00
2024-05-09T06:29:32.915Z,0.50
2024-05-09T06:32:01.018Z,1.00
2024-05-09T06:34:31.534Z,1.00
2024-05-09T06:36:59.509Z,1.00
2024-05-09T06:39:29.792Z,1.00
2024-05-09T06:41:57.748Z,1.00
2024-05-09T06:44:25.862Z,1.00
2024-05-09T06:46:58.106Z,1.00
2024-05-09T06:49:28.988Z,1.00
2024-05-09T06:51:58.245Z,1.00
2024-05-09T06:54:26.149Z,1.00
2024-05-09T06:56:54.174Z,1.00
2024-05-09T06:59:23.446Z,1.00
2024-05-09T07:01:52.100Z,1.00
2024-05-09T07:04:21.522Z,1.00
2024-05-09T07:06:49.742Z,1.00
2024-05-09T07:09:19.994Z,1.00
2024-05-09T07:11:48.053Z,1.50
2024-05-09T07:14:16.019Z,2.00
2024-05-09T07:16:45.414Z,2.00
2024-05-09T07:19:13.678Z,2.00
2024-05-09T07:21:43.167Z,2.00
2024-05-09T07:24:11.093Z,1.50
2024-05-09T07:26:39.203Z,1.00
2024-05-09T07:29:08.730Z,1.00
2024-05-09T07:31:36.914Z,1.00
2024-05-09T07:34:07.105Z,1.00
2024-05-09T07:36:35.080Z,1.00
2024-05-09T07:39:03.150Z,1.00
2024-05-09T07:41:32.612Z,1.00
2024-05-09T07:44:00.643Z,1.50
2024-05-09T07:47:37.072Z,2.00
2024-05-09T07:53:20.477Z,1.00
2024-05-09T07:54:40.567Z,1.00
2024-05-09T07:57:08.631Z,0.00
2024-05-09T07:59:40.243Z,1.00
2024-05-09T08:02:08.453Z,2.00
2024-05-09T08:04:37.982Z,1.00
2024-05-09T08:07:06.109Z,2.00
2024-05-09T08:09:38.588Z,2.00
2024-05-09T08:12:09.136Z,2.00
2024-05-09T08:14:39.973Z,3.00
2024-05-09T08:17:08.061Z,2.00
2024-05-09T08:19:40.494Z,2.67
2024-05-09T08:22:09.266Z,3.00
2024-05-09T08:24:38.583Z,3.00
2024-05-09T08:27:06.472Z,3.00
2024-05-09T08:29:34.393Z,4.00
2024-05-09T08:32:05.636Z,4.00
2024-05-09T08:34:33.818Z,4.00
2024-05-09T08:37:12.722Z,4.00
2024-05-09T08:39:45.272Z,4.00
2024-05-09T08:42:14.404Z,5.00
2024-05-09T08:44:44.709Z,3.00
2024-05-09T08:47:12.886Z,3.00
2024-05-09T08:49:43.243Z,4.00
2024-05-09T08:52:11.222Z,4.00
2024-05-09T08:54:41.567Z,3.67
2024-05-09T08:57:09.564Z,3.00
2024-05-09T08:59:37.592Z,3.00
2024-05-09T09:02:06.762Z,3.00
2024-05-09T09:04:36.466Z,4.00
2024-05-09T09:07:06.458Z,3.00
2024-05-09T09:09:34.358Z,3.00
2024-05-09T09:12:05.773Z,4.00
2024-05-09T09:14:34.722Z,4.00
2024-05-09T09:17:15.964Z,3.50
2024-05-09T09:19:45.430Z,3.00
2024-05-09T09:22:14.994Z,3.67
2024-05-09T09:24:44.392Z,3.00
2024-05-09T09:27:15.542Z,3.00
2024-05-09T09:29:44.761Z,2.00
2024-05-09T09:32:12.705Z,3.00
2024-05-09T09:34:41.363Z,3.00
2024-05-09T09:37:11.138Z,4.00
2024-05-09T09:39:39.703Z,3.67
2024-05-09T09:42:09.086Z,3.50
2024-05-09T09:44:39.594Z,2.33
2024-05-09T09:47:11.340Z,3.00
2024-05-09T09:49:39.357Z,3.00
2024-05-09T09:52:11.148Z,2.33
2024-05-09T09:54:41.174Z,2.00
2024-05-09T09:57:10.675Z,3.00
2024-05-09T09:59:39.496Z,2.00
2024-05-09T10:02:08.994Z,3.00
2024-05-09T10:04:37.333Z,3.00
2024-05-09T10:07:08.434Z,2.33
2024-05-09T10:09:36.522Z,4.00
2024-05-09T10:12:10.619Z,2.00
2024-05-09T10:14:45.813Z,3.00
2024-05-09T10:17:15.568Z,3.00
2024-05-09T10:19:43.509Z,3.00
2024-05-09T10:22:14.176Z,3.00
2024-05-09T10:24:54.846Z,3.75
2024-05-09T10:27:27.850Z,3.00
2024-05-09T10:29:59.718Z,4.00
2024-05-09T10:32:29.094Z,3.00
2024-05-09T10:35:14.855Z,4.00
2024-05-09T10:37:46.122Z,3.00
2024-05-09T10:40:25.906Z,3.00
2024-05-09T10:42:59.559Z,4.00
2024-05-09T10:45:28.502Z,3.00
2024-05-09T10:47:57.918Z,3.00
2024-05-09T10:50:29.131Z,3.25
2024-05-09T10:53:03.850Z,3.00
2024-05-09T10:55:31.912Z,3.00
2024-05-09T10:58:02.203Z,2.50
2024-05-09T11:00:36.149Z,2.00
2024-05-09T11:03:06.246Z,3.00
2024-05-09T11:05:34.559Z,2.00
2024-05-09T11:08:04.193Z,1.50
2024-05-09T11:10:34.327Z,2.00
2024-05-09T11:13:04.417Z,2.00
2024-05-09T11:15:40.092Z,3.00
2024-05-09T11:18:27.135Z,3.00
2024-05-09T11:20:58.086Z,3.00
2024-05-09T11:23:27.053Z,2.00
2024-05-09T11:25:57.458Z,2.00
2024-05-09T11:28:27.946Z,3.00
2024-05-09T11:31:08.566Z,3.00
2024-05-09T11:33:43.728Z,3.00
2024-05-09T11:36:13.961Z,3.00
2024-05-09T11:38:41.959Z,3.00
2024-05-09T11:41:18.368Z,3.00
2024-05-09T11:43:47.785Z,4.00
2024-05-09T11:46:15.913Z,3.00
2024-05-09T11:48:44.069Z,3.00
2024-05-09T11:51:13.559Z,2.00
2024-05-09T11:53:41.603Z,3.00
2024-05-09T11:56:14.660Z,3.00
2024-05-09T11:58:42.688Z,2.00
2024-05-09T12:01:12.012Z,2.00
2024-05-09T12:03:40.062Z,2.00
2024-05-09T12:06:08.220Z,2.00
2024-05-09T12:08:37.865Z,3.50
2024-05-09T12:11:05.811Z,2.50
2024-05-09T12:13:36.099Z,2.00
2024-05-09T12:16:04.203Z,4.00
2024-05-09T12:18:33.783Z,3.00
2024-05-09T12:21:02.987Z,3.50
2024-05-09T12:23:31.083Z,3.00
2024-05-09T12:25:59.000Z,2.00
2024-05-09T12:28:28.345Z,4.00
2024-05-09T12:30:56.325Z,4.00
2024-05-09T12:33:26.630Z,3.67
2024-05-09T12:35:55.337Z,3.75
2024-05-09T12:38:24.656Z,3.50
2024-05-09T12:40:52.874Z,3.00
2024-05-09T12:52:53.734Z,4.00
2024-05-09T12:55:21.703Z,3.67
2024-05-09T12:57:49.644Z,3.25
2024-05-09T13:00:24.051Z,4.00
2024-05-09T13:03:00.635Z,4.00
2024-05-09T13:05:29.690Z,4.00
2024-05-09T13:08:00.326Z,4.00
2024-05-09T13:10:32.219Z,4.00
2024-05-09T13:13:02.645Z,3.00
2024-05-09T13:15:34.193Z,3.00
2024-05-09T13:18:04.117Z,3.50
2024-05-09T13:20:34.581Z,3.00
2024-05-09T13:23:06.349Z,3.00
2024-05-09T13:25:36.835Z,3.00
2024-05-09T13:28:07.320Z,3.00
2024-05-09T13:30:40.449Z,3.00
2024-05-09T13:33:14.024Z,3.00
2024-05-09T13:35:47.058Z,3.00
2024-05-09T13:38:20.636Z,2.00
2024-05-09T13:40:49.833Z,2.00
2024-05-09T13:43:21.567Z,3.00
2024-05-09T13:45:50.133Z,2.33
2024-05-09T13:48:19.682Z,3.00
2024-05-09T13:50:47.906Z,3.00
2024-05-09T13:53:18.085Z,2.00
2024-05-09T13:55:46.069Z,2.00
2024-05-09T13:58:14.428Z,3.00
2024-05-09T14:00:48.067Z,2.00
2024-05-09T14:03:20.887Z,1.00
2024-05-09T14:05:51.294Z,2.50
2024-05-09T14:08:22.528Z,2.00
2024-05-09T14:10:51.933Z,2.00
2024-05-09T14:13:21.306Z,2.00
2024-05-09T14:15:49.512Z,2.00
2024-05-09T14:18:19.827Z,3.00
2024-05-09T14:20:47.796Z,2.00
2024-05-09T14:23:18.112Z,2.00
2024-05-09T14:25:49.039Z,1.00
2024-05-09T14:28:21.895Z,1.00
2024-05-09T14:30:50.496Z,2.00
2024-05-09T14:33:25.090Z,1.00
2024-05-09T14:35:56.153Z,2.00
2024-05-09T14:38:24.304Z,2.00
2024-05-09T14:40:54.657Z,1.67
2024-05-09T14:43:22.636Z,2.00
2024-05-09T14:45:50.781Z,2.00
2024-05-09T14:48:20.279Z,1.00
2024-05-09T14:50:48.540Z,2.00
2024-05-09T14:53:18.752Z,1.00
2024-05-09T14:55:46.934Z,1.00
2024-05-09T14:58:15.255Z,2.00
2024-05-09T15:00:49.858Z,2.00
2024-05-09T15:03:21.671Z,2.00
2024-05-09T15:05:51.376Z,1.00
2024-05-09T15:08:21.134Z,1.00
2024-05-09T15:10:50.118Z,2.00
2024-05-09T15:13:20.810Z,2.00
2024-05-09T15:15:49.316Z,1.00
2024-05-09T15:18:18.815Z,2.00
2024-05-09T15:20:47.091Z,1.25
2024-05-09T15:23:17.411Z,1.67
2024-05-09T15:25:45.404Z,1.00
2024-05-09T15:28:13.422Z,0.00
2024-05-09T15:30:45.955Z,1.00
2024-05-09T15:33:14.967Z,1.00
2024-05-09T15:35:46.226Z,1.00
2024-05-09T15:38:14.739Z,1.50
2024-05-09T15:40:44.192Z,1.00
2024-05-09T15:43:12.517Z,1.00
2024-05-09T15:45:42.050Z,2.00
2024-05-09T15:48:10.745Z,1.00
2024-05-09T15:50:42.281Z,1.00
2024-05-09T15:53:13.048Z,1.00
2024-05-09T15:55:43.186Z,1.00
2024-05-09T15:58:12.019Z,1.00
2024-05-09T16:00:43.663Z,1.00
2024-05-09T16:03:14.239Z,1.00
2024-05-09T16:05:48.208Z,1.00
2024-05-09T16:08:16.747Z,1.00
2024-05-09T16:10:47.091Z,1.00
2024-05-09T16:13:16.287Z,1.00
2024-05-09T16:15:46.512Z,1.00
2024-05-09T16:18:14.718Z,1.00
2024-05-09T16:20:47.471Z,1.00
2024-05-09T16:23:17.854Z,1.00
2024-05-09T16:25:47.559Z,1.00
2024-05-09T16:28:15.899Z,1.00
2024-05-09T16:30:46.241Z,0.67
2024-05-09T16:33:14.308Z,1.00
2024-05-09T16:35:42.389Z,1.00
2024-05-09T16:38:11.495Z,1.00
2024-05-09T16:40:41.189Z,0.00
2024-05-09T16:43:12.822Z,0.50
2024-05-09T16:45:43.647Z,0.00
2024-05-09T16:48:13.927Z,0.00
2024-05-09T16:50:42.278Z,1.00
2024-05-09T16:53:13.496Z,1.00
2024-05-09T16:55:41.542Z,1.00
2024-05-09T16:58:12.092Z,0.00
2024-05-09T17:00:43.236Z,0.33
2024-05-09T17:03:15.310Z,0.00
2024-05-09T17:05:46.587Z,1.00
2024-05-09T17:08:20.008Z,0.00
2024-05-09T17:10:48.922Z,1.00
2024-05-09T17:13:19.308Z,1.00
2024-05-09T17:15:48.752Z,0.00
2024-05-09T17:18:18.230Z,1.00
2024-05-09T17:20:46.279Z,1.00
2024-05-09T17:23:14.614Z,1.00
2024-05-09T17:25:44.047Z,0.00
2024-05-09T17:28:12.297Z,1.00
2024-05-09T17:30:43.244Z,1.00
2024-05-09T17:33:12.751Z,0.00
2024-05-09T17:35:42.508Z,0.50
2024-05-09T17:38:10.480Z,0.00
2024-05-09T17:40:39.265Z,1.00
2024-05-09T17:43:10.599Z,1.00
2024-05-09T17:45:40.639Z,1.00
2024-05-09T17:48:11.829Z,1.00
2024-05-09T17:50:41.846Z,1.00
2024-05-09T17:53:11.582Z,1.00
2024-05-09T17:55:39.969Z,0.25
2024-05-09T17:58:09.796Z,1.00
2024-05-09T18:00:41.187Z,1.00
2024-05-09T18:03:13.247Z,1.00
2024-05-09T18:05:44.499Z,1.00
2024-05-09T18:08:14.522Z,0.50
2024-05-09T18:10:42.876Z,1.00
2024-05-09T18:13:12.774Z,0.00
2024-05-09T18:15:41.078Z,0.00
2024-05-09T18:18:11.703Z,0.00
2024-05-09T18:20:44.215Z,0.00
2024-05-09T18:23:17.744Z,1.00
2024-05-09T18:25:47.666Z,0.00
2024-05-09T18:28:17.767Z,1.00
2024-05-09T18:30:46.285Z,0.00
2024-05-09T18:33:16.831Z,1.00
2024-05-09T18:35:45.181Z,0.00
2024-05-09T18:38:15.554Z,1.00
2024-05-09T18:40:45.944Z,1.00
2024-05-09T18:43:17.650Z,1.00
2024-05-09T18:45:46.213Z,1.00
2024-05-09T18:48:16.626Z,1.00
2024-05-09T18:50:44.955Z,1.00
2024-05-09T18:53:14.408Z,1.00
2024-05-09T18:55:42.647Z,1.00
2024-05-09T18:58:12.393Z,1.00
2024-05-09T19:00:42.916Z,1.00
2024-05-09T19:03:15.203Z,0.00
2024-05-09T19:05:45.875Z,1.00
2024-05-09T19:08:17.100Z,1.00
2024-05-09T19:10:45.660Z,1.00
2024-05-09T19:13:16.271Z,1.00
2024-05-09T19:15:44.734Z,1.00
2024-05-09T19:18:14.900Z,1.00
2024-05-09T19:20:43.654Z,0.00
2024-05-09T19:23:13.150Z,1.00
2024-05-09T19:25:41.300Z,1.00
2024-05-09T19:28:11.735Z,1.00
2024-05-09T19:30:42.107Z,0.00
2024-05-09T19:33:13.687Z,0.50
2024-05-09T19:35:43.249Z,1.00
2024-05-09T19:38:12.900Z,1.00
2024-05-09T19:40:41.267Z,1.00
2024-05-09T19:43:11.725Z,0.00
2024-05-09T19:45:39.886Z,1.00
2024-05-09T19:48:10.569Z,0.00
2024-05-09T19:50:43.154Z,0.00
2024-05-09T19:53:15.117Z,1.00
2024-05-09T19:55:43.340Z,1.00
2024-05-09T19:58:13.934Z,1.00
2024-05-09T20:00:43.731Z,0.00
2024-05-09T20:03:15.196Z,0.00
2024-05-09T20:05:45.887Z,0.00
2024-05-09T20:08:16.124Z,0.00
2024-05-09T20:10:44.278Z,1.00
2024-05-09T20:13:13.791Z,0.00
2024-05-09T20:15:42.071Z,0.00
2024-05-09T20:18:12.542Z,0.00
2024-05-09T20:20:43.008Z,1.00
2024-05-09T20:23:14.426Z,0.00
2024-05-09T20:25:42.545Z,1.00
2024-05-09T20:28:12.795Z,1.00
2024-05-09T20:30:40.896Z,0.00
2024-05-09T20:33:09.886Z,1.00
2024-05-09T20:35:39.855Z,0.00
2024-05-09T20:38:07.837Z,1.00
2024-05-09T20:40:39.559Z,1.00
2024-05-09T20:43:09.749Z,1.00
2024-05-09T20:45:40.150Z,1.00
2024-05-09T20:48:08.919Z,1.00
2024-05-09T20:50:41.357Z,0.50
2024-05-09T20:53:12.874Z,1.00
2024-05-09T20:55:43.703Z,1.00
2024-05-09T20:58:12.561Z,1.00
2024-05-09T21:00:45.070Z,1.00
2024-05-09T21:03:16.629Z,0.00
2024-05-09T21:05:48.598Z,1.00
2024-05-09T21:08:17.067Z,1.00
2024-05-09T21:10:47.684Z,1.00
2024-05-09T21:13:15.954Z,1.00
2024-05-09T21:15:46.695Z,1.00
2024-05-09T21:18:14.827Z,1.00
2024-05-09T21:20:45.094Z,0.67
2024-05-09T21:23:13.243Z,0.50
2024-05-09T21:25:43.585Z,1.00
2024-05-09T21:28:11.539Z,1.00
2024-05-09T21:30:42.467Z,1.00
2024-05-09T21:33:14.213Z,1.00
2024-05-09T21:35:44.005Z,1.00
2024-05-09T21:38:14.633Z,1.00
2024-05-09T21:40:43.492Z,1.00
2024-05-09T21:43:13.066Z,1.00
2024-05-09T21:45:41.352Z,0.50
2024-05-09T21:48:12.449Z,0.00
2024-05-09T21:50:42.269Z,1.00
2024-05-09T21:53:12.953Z,1.00
2024-05-09T21:55:44.630Z,0.25
2024-05-09T21:58:14.258Z,0.50
2024-05-09T22:00:44.949Z,0.33
2024-05-09T22:03:14.975Z,1.00
2024-05-09T22:05:44.570Z,0.00
2024-05-09T22:08:14.300Z,0.00
2024-05-09T22:10:42.453Z,1.00
2024-05-09T22:13:12.120Z,0.50
2024-05-09T22:15:40.832Z,1.00
2024-05-09T22:18:11.664Z,1.00
2024-05-09T22:20:44.493Z,1.00
2024-05-09T22:23:15.689Z,1.00
2024-05-09T22:25:44.011Z,1.00
2024-05-09T22:28:15.122Z,1.00
2024-05-09T22:30:45.415Z,1.00
2024-05-09T22:33:14.875Z,1.00
2024-05-09T22:35:43.071Z,1.00
2024-05-09T22:38:13.434Z,0.25
2024-05-09T22:40:47.443Z,1.00
2024-05-09T22:43:20.695Z,1.00
2024-05-09T22:45:50.315Z,1.00
2024-05-09T22:48:20.136Z,1.00
2024-05-09T22:50:48.370Z,1.25
2024-05-09T22:53:18.683Z,2.00
2024-05-09T22:55:46.600Z,1.00
2024-05-09T22:58:14.481Z,1.00
2024-05-09T23:00:43.927Z,1.00
2024-05-09T23:03:13.891Z,1.00
2024-05-09T23:05:44.262Z,0.00
2024-05-09T23:08:12.279Z,1.00
2024-05-09T23:10:42.489Z,1.00
2024-05-09T23:13:10.460Z,1.00
2024-05-09T23:15:38.807Z,2.00
2024-05-09T23:18:08.589Z,1.00
2024-05-09T23:20:39.340Z,1.00
2024-05-09T23:23:11.123Z,1.00
2024-05-09T23:25:43.323Z,1.00
2024-05-09T23:28:12.672Z,1.00
2024-05-09T23:30:41.819Z,2.00
2024-05-09T23:33:12.885Z,1.00
2024-05-09T23:35:42.139Z,1.75
2024-05-09T23:38:11.611Z,1.50
2024-05-09T23:40:41.350Z,2.00
2024-05-09T23:43:12.472Z,2.00
2024-05-09T23:45:41.791Z,2.00
2024-05-09T23:48:11.622Z,2.00
2024-05-09T23:50:40.736Z,2.00
2024-05-09T23:53:11.158Z,1.00
2024-05-09T23:55:39.733Z,2.00
2024-05-09T23:58:11.127Z,1.00
